• Join FlightAware (Why Join?)
  • Login
  • US Flag 
12:02AM EDT


 

Airport Tracker/Info


-or-


 

Live Flight TrackerFlight Track Log ✈ JIA2533 ✈ 10-May-2013 ✈ KPHL - KTYS

Flight Track Log - Related Links

Times and Time Zones

All times are in EDT time to prevent confusion due to time zone crossing. See the JIA2533 flight status page for this flight to view local times or setup timezone preferences in your user account.

Time Position Orientation Groundspeed Altitude Reporting Facility
EDT Latitude Longitude Course Direction KTS MPH feet Rate Location/Type
03:34PM 39.8667 -75.2833 270° West 170 196 700  Level Philadelphia TRACON
03:35PM 39.8500 -75.3500 252° West 199 229 3,000 2,040 Climbing Philadelphia TRACON
03:36PM 39.8333 -75.4333 255° West 247 284 5,100 2,040 Climbing Philadelphia TRACON
03:37PM 39.8327 -75.7874 258° West  Level FlightAware Approximate
03:38PM 39.8092 -75.9286 258° West  Level FlightAware Approximate
03:38PM 39.8386 -75.6211 272° West 256 295 9,500  Level New York Center
03:39PM 39.8000 -76.0717 270° West  Level FlightAware Approximate
03:39PM 39.8381 -75.7344 270° West 275 316 11,400  Level New York Center
03:40PM 39.8319 -75.8289 265° West 291 335 13,000 1,680 Climbing New York Center
03:41PM 39.8206 -75.9494 263° West 305 351 14,800 1,680 Climbing New York Center
03:42PM 39.8097 -76.0542 262° West 317 365 16,500 1,620 Climbing New York Center
03:43PM 39.7914 -76.1797 259° West 322 371 18,100 1,320 Climbing New York Center
03:44PM 39.7575 -76.2797 246° West 322 371 19,200 1,140 Climbing New York Center
03:45PM 39.7150 -76.3872 243° Southwest 333 383 20,500 1,320 Climbing New York Center
03:45PM 39.7067 -76.4169 250° West 334 384 20,900 1,320 Climbing Washington Center
03:46PM 39.6578 -76.5403 243° Southwest 334 384 22,200 1,020 Climbing Washington Center
03:47PM 39.6131 -76.6528 243° Southwest 348 400 23,000 960 Climbing Washington Center
03:48PM 39.5703 -76.7681 244° Southwest 348 400 24,200 1,020 Climbing Washington Center
03:49PM 39.5297 -76.8803 245° Southwest 353 406 25,100 840 Climbing Washington Center
03:50PM 39.4806 -76.9897 240° Southwest 353 406 26,000 780 Climbing Washington Center
03:51PM 39.4044 -77.0742 221° Southwest 353 406 26,700 720 Climbing Washington Center
03:52PM 39.3264 -77.1531 218° Southwest 359 413 27,500 840 Climbing Washington Center
03:53PM 39.2483 -77.2344 219° Southwest 365 420 28,400 840 Climbing Washington Center
03:54PM 39.1719 -77.3183 220° Southwest 365 420 29,200 780 Climbing Washington Center
03:55PM 39.0917 -77.3994 218° Southwest 365 420 30,000 360 Climbing Washington Center
03:56PM 39.0133 -77.4803 219° Southwest 370 426 30,000  Level Washington Center
03:57PM 38.9369 -77.5583 218° Southwest 381 438 30,000  Level Washington Center
03:58PM 38.8414 -77.6597 220° Southwest 391 450 30,000  Level Washington Center
03:59PM 38.7586 -77.7400 217° Southwest 410 472 30,000  Level Washington Center
04:00PM 38.6736 -77.8306 220° Southwest 410 472 30,000  Level Washington Center
04:01PM 38.6008 -77.9347 228° Southwest 399 459 30,000  Level Washington Center
04:02PM 38.5361 -78.0469 234° Southwest 399 459 30,000  Level Washington Center
04:03PM 38.4711 -78.1561 233° Southwest 394 453 30,000  Level Washington Center
04:04PM 38.4083 -78.2625 233° Southwest 394 453 30,000  Level Washington Center
04:05PM 38.3478 -78.3664 233° Southwest 381 438 30,000  Level Washington Center
04:06PM 38.2869 -78.4697 233° Southwest 376 433 30,000  Level Washington Center
04:07PM 38.2197 -78.5756 231° Southwest 376 433 30,000  Level Washington Center
04:08PM 38.1628 -78.6817 236° Southwest 371 427 30,000  Level Washington Center
04:09PM 38.1061 -78.7717 231° Southwest 371 427 30,000  Level Washington Center
04:10PM 38.0450 -78.8719 232° Southwest 371 427 30,000  Level Washington Center
04:11PM 37.9836 -78.9772 234° Southwest 371 427 30,000  Level Washington Center
04:12PM 37.9203 -79.0822 233° Southwest 377 434 30,000  Level Washington Center
04:13PM 37.8583 -79.2006 236° Southwest 377 434 30,000  Level Washington Center
04:14PM 37.8050 -79.3108 239° Southwest 377 434 30,000 -420 Level Washington Center
04:15PM 37.7469 -79.4236 237° Southwest 382 440 29,200 -900 Descending Washington Center
04:16PM 37.6892 -79.5336 236° Southwest 387 445 28,200 -600 Descending Washington Center
04:17PM 37.6333 -79.6433 237° Southwest 377 434 28,000 -120 Descending Washington Center
04:18PM 37.5842 -79.7403 237° Southwest 377 434 28,000  Level Washington Center
04:19PM 37.5236 -79.8628 238° Southwest 377 434 28,000  Level Washington Center
04:20PM 37.4697 -79.9722 238° Southwest 377 434 28,000  Level Washington Center
04:21PM 37.4181 -80.0714 237° Southwest 377 434 28,000  Level Washington Center
04:22PM 37.3494 -80.2039 237° Southwest 379 436 28,000  Level Atlanta Center
04:23PM 37.2864 -80.3244 237° Southwest 379 436 28,000  Level Atlanta Center
04:24PM 37.2378 -80.4361 241° Southwest 379 436 28,000  Level Atlanta Center
04:25PM 37.1953 -80.5553 246° West 373 429 28,000  Level Atlanta Center
04:26PM 37.1528 -80.6719 245° Southwest 373 429 28,000  Level Atlanta Center
04:27PM 37.1139 -80.7750 245° Southwest 373 429 28,000  Level Atlanta Center
04:28PM 37.0711 -80.8939 246° West 373 429 28,000  Level Atlanta Center
04:29PM 37.0281 -81.0072 245° Southwest 367 422 28,000  Level Atlanta Center
04:30PM 36.9831 -81.1261 245° Southwest 367 422 28,000  Level Atlanta Center
04:31PM 36.9694 -81.2667 263° West 367 422 28,000  Level Atlanta Center
04:32PM 36.9661 -81.3994 268° West 376 433 28,000  Level Atlanta Center
04:33PM 36.9481 -81.5272 260° West 376 433 28,000 -60 Level Atlanta Center
04:34PM 36.9003 -81.6353 241° Southwest 365 420 27,900 -480 Descending Atlanta Center
04:35PM 36.8564 -81.7378 242° Southwest 370 426 27,100 -960 Descending Atlanta Center
04:36PM 36.8083 -81.8506 242° Southwest 375 432 26,000 -1,080 Descending Atlanta Center
04:37PM 36.7622 -81.9581 242° Southwest 370 426 25,000 -1,020 Descending Atlanta Center
04:38PM 36.7161 -82.0656 242° Southwest 362 417 24,000 -1,020 Descending Atlanta Center
04:39PM 36.6697 -82.1700 241° Southwest 356 410 23,000 -1,020 Descending Atlanta Center
04:40PM 36.6253 -82.2747 242° Southwest 356 410 22,000 -540 Descending Atlanta Center
04:41PM 36.5808 -82.3764 241° Southwest 350 403 22,000 -240 Level Atlanta Center
04:42PM 36.5364 -82.4808 242° Southwest 350 403 21,600 -960 Descending Atlanta Center
04:43PM 36.4917 -82.5797 241° Southwest 350 403 20,100 -1,500 Descending Atlanta Center
04:44PM 36.4469 -82.6839 242° Southwest 345 397 18,700 -1,380 Descending Atlanta Center
04:45PM 36.4003 -82.7878 241° Southwest 333 383 17,400 -1,380 Descending Atlanta Center
04:46PM 36.3572 -82.8811 240° Southwest 322 371 16,000 -1,440 Descending Atlanta Center
04:47PM 36.3206 -82.9694 243° Southwest 309 356 14,600 -1,440 Descending Atlanta Center
04:48PM 36.2817 -83.0547 241° Southwest 298 343 13,200 -1,440 Descending Atlanta Center
04:49PM 36.2447 -83.1403 242° Southwest 287 330 11,800 -1,140 Descending Atlanta Center
04:50PM 36.2078 -83.2231 241° Southwest 287 330 11,000 -420 Descending Atlanta Center
04:51PM 36.1728 -83.3031 242° Southwest 282 325 11,000 -300 Level Atlanta Center
04:52PM 36.1358 -83.3831 240° Southwest 277 319 10,400 -1,200 Descending Atlanta Center
04:53PM 36.1028 -83.4553 240° Southwest 264 304 8,700 -1,620 Descending Atlanta Center
04:54PM 36.0719 -83.5275 242° Southwest 248 285 7,200 -1,440 Descending Atlanta Center
04:55PM 36.0408 -83.5944 240° Southwest 248 285 5,900 -1,380 Descending Atlanta Center
04:56PM 36.0078 -83.6639 240° Southwest 248 285 4,500 -960 Descending Atlanta Center
04:57PM 35.9786 -83.7358 243° Southwest 248 285 4,000 -600 Descending Atlanta Center
04:58PM 35.9456 -83.8131 242° Southwest 248 285 3,300 -720 Descending Atlanta Center